Data for 04/28/2015

Time Sea-Level Adjusted Pressure Absolute Pressure Temperature Relative Humidity Dew Point   
(mb) (inHg) (mb) (inHg) (C) (F) (%) (C) (F)
00:05 1026 30.3 855 25.25 4.1 39.4 67 -1.4 29.5
00:10 1026 30.3 855 25.25 4.1 39.4 66 -1.6 29.1
00:15 1026 30.3 855 25.25 4.1 39.3 67 -1.6 29.2
00:20 1026 30.3 855 25.25 4 39.3 67 -1.6 29.2
00:25 1025 30.27 855 25.25 4.1 39.4 65 -1.8 28.8
00:30 1025 30.27 855 25.25 4.3 39.7 65 -1.7 29
00:35 1026 30.3 855 25.25 4.3 39.8 64 -1.8 28.7
00:40 1025 30.27 855 25.25 4.5 40.1 64 -1.7 29
00:45 1025 30.27 855 25.25 4.5 40 65 -1.6 29.1
00:50 1025 30.27 855 25.25 4.5 40.1 65 -1.5 29.3
00:55 1025 30.27 855 25.25 4.4 39.8 65 -1.6 29.1
01:00 1025 30.27 855 25.25 4.3 39.8 66 -1.5 29.2
01:05 1025 30.27 854 25.22 4.2 39.5 66 -1.5 29.3
01:10 1025 30.27 854 25.22 4 39.2 67 -1.6 29.1
01:15 1025 30.27 854 25.22 4 39.2 67 -1.6 29.1
01:20 1025 30.27 854 25.22 3.9 39.1 67 -1.7 28.9
01:25 1025 30.27 854 25.22 4 39.3 66 -1.8 28.7
01:30 1025 30.27 854 25.22 4.1 39.4 65 -1.8 28.8
01:35 1025 30.27 854 25.22 4.2 39.6 66 -1.6 29
01:40 1025 30.27 854 25.22 4 39.2 66 -1.8 28.8
01:45 1025 30.27 854 25.22 4 39.2 67 -1.6 29.1
01:50 1025 30.27 854 25.22 3.7 38.7 68 -1.6 29
01:55 1025 30.27 854 25.22 3.6 38.4 68 -1.8 28.8
02:00 1025 30.27 854 25.22 3.5 38.4 68 -1.8 28.7
02:05 1025 30.27 854 25.22 3.5 38.4 68 -1.8 28.8
02:10 1025 30.27 854 25.22 3.6 38.4 68 -1.8 28.7
02:15 1025 30.27 854 25.22 3.7 38.6 67 -1.8 28.8
02:20 1025 30.27 854 25.22 3.8 38.9 66 -1.9 28.6
02:25 1025 30.27 855 25.25 4 39.2 67 -1.6 29
02:30 1025 30.27 855 25.25 3.7 38.6 66 -2 28.3
02:35 1025 30.27 855 25.25 4.3 39.8 63 -2 28.4
02:40 1025 30.27 855 25.25 4.6 40.2 63 -1.8 28.7
02:45 1025 30.27 855 25.25 4.6 40.3 63 -1.8 28.7
02:50 1025 30.27 855 25.25 4.5 40.1 63 -1.8 28.7
02:55 1025 30.27 855 25.25 4.6 40.2 63 -1.8 28.8
03:00 1025 30.27 855 25.25 4.4 39.9 64 -1.8 28.7
03:05 1025 30.27 855 25.25 4.3 39.7 65 -1.8 28.8
03:10 1026 30.3 855 25.25 4.2 39.6 65 -1.8 28.8
03:15 1026 30.3 855 25.25 3.9 39 67 -1.8 28.8
03:20 1025 30.27 855 25.25 3.8 38.9 65 -2.1 28.3
03:25 1025 30.27 855 25.25 4.1 39.4 66 -1.7 28.9
03:30 1025 30.27 855 25.25 4 39.2 66 -1.9 28.7
03:35 1025 30.27 855 25.25 3.8 38.8 66 -2 28.4
03:40 1025 30.27 854 25.22 3.6 38.6 67 -1.9 28.7
03:45 1025 30.27 854 25.22 3.5 38.3 68 -1.8 28.7
03:50 1025 30.27 854 25.22 3.2 37.7 69 -1.9 28.6
03:55 1025 30.27 854 25.22 3 37.3 71 -1.9 28.6
04:00 1025 30.27 854 25.22 2.7 36.9 71 -2 28.3
04:05 1025 30.27 854 25.22 3 37.4 69 -2.1 28.3
04:10 1025 30.27 854 25.22 3.3 37.9 68 -2 28.3
04:15 1025 30.27 854 25.22 3 37.4 70 -2 28.5
04:20 1025 30.27 854 25.22 3.1 37.6 69 -2.1 28.2
04:25 1025 30.27 854 25.22 3.1 37.7 70 -1.8 28.7
04:30 1025 30.27 854 25.22 2.9 37.2 72 -1.7 28.9
04:35 1025 30.27 854 25.22 2.6 36.6 73 -1.8 28.7
04:40 1025 30.27 854 25.22 2.4 36.3 73 -1.9 28.6
04:45 1025 30.27 854 25.22 2.3 36.1 73 -2 28.4
04:50 1025 30.27 854 25.22 2.3 36.1 73 -2.1 28.3
04:55 1025 30.27 854 25.22 2.2 36 73 -2.1 28.3
05:00 1025 30.27 854 25.22 2.2 36 74 -2 28.4
05:05 1025 30.27 854 25.22 2 35.7 75 -2 28.4
05:10 1025 30.27 854 25.22 2.2 35.9 74 -2 28.4
05:15 1025 30.27 854 25.22 2.3 36.1 73 -2.1 28.3
05:20 1025 30.27 854 25.22 2.4 36.4 72 -2.1 28.3
05:25 1025 30.27 854 25.22 2.6 36.7 71 -2.1 28.2
05:30 1025 30.27 854 25.22 2.8 37 70 -2.1 28.2
05:35 1025 30.27 854 25.22 3.1 37.5 69 -2.1 28.2
05:40 1025 30.27 854 25.22 3.1 37.7 70 -1.9 28.6
05:45 1025 30.27 854 25.22 3 37.4 70 -2 28.5
05:50 1025 30.27 854 25.22 3 37.4 70 -2 28.4
05:55 1025 30.27 854 25.22 3.3 37.9 67 -2.2 28.1
06:00 1025 30.27 854 25.22 3.7 38.7 66 -2.1 28.3
06:05 1025 30.27 854 25.22 3.9 39.1 65 -2 28.3
06:10 1025 30.27 854 25.22 4.3 39.7 63 -2 28.3
06:15 1025 30.27 854 25.22 4.7 40.5 61 -2 28.3
06:20 1025 30.27 854 25.22 5 41.1 61 -1.9 28.6
06:25 1025 30.27 854 25.22 5.3 41.6 60 -1.7 28.9
06:30 1025 30.27 854 25.22 5.6 42.2 59 -1.6 29.1
06:35 1025 30.27 854 25.22 5.7 42.3 59 -1.7 28.9
06:40 1025 30.27 854 25.22 6 42.8 58 -1.6 29.1
06:45 1025 30.27 854 25.22 6 42.8 58 -1.7 29
06:50 1025 30.27 854 25.22 6.1 43 58 -1.6 29.2
06:55 1025 30.27 854 25.22 6.5 43.7 56 -1.5 29.2
07:00 1025 30.27 854 25.22 7 44.5 54 -1.6 29.1
07:05 1025 30.27 854 25.22 7.5 45.4 54 -1.3 29.7
07:10 1025 30.27 854 25.22 7.5 45.6 52 -1.7 28.9
07:15 1025 30.27 854 25.22 8.1 46.6 50 -1.6 29.1
07:20 1025 30.27 854 25.22 8.4 47.2 50 -1.5 29.3
07:25 1025 30.27 854 25.22 8.8 47.8 49 -1.4 29.5
07:30 1025 30.27 854 25.22 9.1 48.4 48 -1.3 29.7
07:35 1025 30.27 854 25.22 8.7 47.6 49 -1.3 29.6
07:40 1025 30.27 854 25.22 8.5 47.3 49 -1.5 29.3
07:45 1025 30.27 854 25.22 9 48.1 48 -1.3 29.6
07:50 1025 30.27 854 25.22 9.1 48.3 46 -1.8 28.7
07:55 1024 30.24 854 25.22 9.2 48.5 48 -1.2 29.8
08:00 1024 30.24 854 25.22 9 48.1 48 -1.3 29.6
08:05 1024 30.24 854 25.22 9.3 48.7 48 -1 30.2
08:10 1024 30.24 854 25.22 9.3 48.7 47 -1.4 29.6
08:15 1024 30.24 853 25.19 9.9 49.8 45 -1.3 29.6
08:20 1024 30.24 853 25.19 9.9 49.7 46 -1.3 29.7
08:25 1024 30.24 853 25.19 10.8 51.5 42 -1.7 29
08:30 1024 30.24 853 25.19 11.3 52.4 41 -1.3 29.6
08:35 1024 30.24 853 25.19 10.9 51.7 43 -1.2 29.9
08:40 1024 30.24 853 25.19 11 51.7 41 -1.7 29
08:45 1024 30.24 853 25.19 10.6 51.1 44 -1.2 29.8
08:50 1024 30.24 853 25.19 10.7 51.3 43 -1.3 29.7
08:55 1024 30.24 853 25.19 11 51.8 43 -1 30.3
09:00 1024 30.24 853 25.19 11.2 52.1 43 -0.9 30.4
09:05 1024 30.24 853 25.19 11.8 53.3 41 -1.1 30
09:10 1024 30.24 853 25.19 12.1 53.8 39 -1.4 29.5
09:15 1024 30.24 853 25.19 12.2 54 41 -0.5 31
09:20 1024 30.24 853 25.19 12.1 53.7 38 -1.7 28.9
09:25 1024 30.24 853 25.19 12.6 54.8 39 -0.8 30.5
09:30 1024 30.24 853 25.19 12.8 55.1 40 -0.3 31.5
09:35 1024 30.24 853 25.19 12.2 53.9 42 -0.4 31.2
09:40 1024 30.24 853 25.19 12.4 54.3 42 -0.2 31.7
09:45 1024 30.24 853 25.19 13 55.4 39 -0.6 30.9
09:50 1024 30.24 853 25.19 13.6 56.5 37 -0.8 30.5
09:55 1024 30.24 853 25.19 13.6 56.4 37 -0.6 30.8
10:00 1024 30.24 853 25.19 14 57.2 37 -0.5 31.2
10:05 1024 30.24 853 25.19 14.4 58 33 -1.4 29.5
10:10 1023 30.21 853 25.19 14.5 58 35 -0.7 30.7
10:15 1023 30.21 853 25.19 15.1 59.2 34 -0.5 31
10:20 1023 30.21 853 25.19 13.9 57 38 -0.1 31.8
10:25 1023 30.21 853 25.19 14.4 57.9 35 -0.7 30.7
10:30 1023 30.21 853 25.19 14.2 57.5 38 0.1 32.2
10:35 1023 30.21 853 25.19 14.6 58.3 37 0.3 32.6
10:40 1023 30.21 852 25.16 14.1 57.3 39 0.2 32.4
10:45 1023 30.21 852 25.16 14.9 58.8 36 -0.1 31.8
10:50 1023 30.21 852 25.16 15.5 59.8 33 -0.7 30.8
10:55 1023 30.21 852 25.16 14.9 58.8 34 -0.6 31
11:00 1023 30.21 852 25.16 14.7 58.5 34 -0.8 30.5
11:05 1023 30.21 852 25.16 15.3 59.5 34 -0.5 31.1
11:10 1023 30.21 852 25.16 16.1 61 33 -0.2 31.7
11:15 1023 30.21 852 25.16 16 60.8 33 -0.1 31.7
11:20 1023 30.21 852 25.16 15.9 60.6 35 0.7 33.2
11:25 1023 30.21 852 25.16 15.6 60.2 33 -0.6 30.9
11:30 1023 30.21 852 25.16 16.5 61.8 33 0.1 32.2
11:35 1023 30.21 852 25.16 15.5 59.9 35 0.4 32.7
11:40 1023 30.21 852 25.16 16.5 61.7 31 -0.5 31.1
11:45 1023 30.21 852 25.16 17.6 63.7 30 0.1 32.2
11:50 1023 30.21 852 25.16 17.7 63.9 29 -0.2 31.6
11:55 1022 30.18 852 25.16 17.2 63 30 -0.3 31.5
12:00 1022 30.18 852 25.16 17 62.6 28 -1.6 29.1
12:05 1022 30.18 852 25.16 17.4 63.3 29 -0.8 30.6
12:10 1022 30.18 851 25.13 18.1 64.5 27 -1.3 29.7
12:15 1022 30.18 851 25.13 18.6 65.5 26 -1 30.1
12:20 1022 30.18 851 25.13 19 66.1 25 -1.3 29.6
12:25 1022 30.18 851 25.13 18.7 65.7 24 -2.1 28.2
12:30 1022 30.18 851 25.13 18.8 65.8 26 -0.7 30.7
12:35 1022 30.18 851 25.13 18 64.4 23 -3.4 25.9
12:40 1022 30.18 851 25.13 18.8 65.8 22 -3 26.5
12:45 1022 30.18 851 25.13 18.8 65.9 23 -2.9 26.9
12:50 1022 30.18 851 25.13 18.7 65.7 20 -4.3 24.3
12:55 1022 30.18 851 25.13 19.3 66.8 21 -3.4 25.9
13:00 1022 30.18 851 25.13 19 66.2 23 -2.7 27.1
13:05 1021 30.15 851 25.13 19.7 67.4 18 -4.9 23.1
13:10 1021 30.15 851 25.13 20.2 68.3 20 -3.4 26
13:15 1021 30.15 851 25.13 20.5 68.8 19 -3.8 25.1
13:20 1021 30.15 850 25.1 19.3 66.7 21 -3.3 26
13:25 1021 30.15 850 25.1 18.6 65.5 21 -3.9 24.9
13:30 1021 30.15 850 25.1 19.5 67.1 18 -5.4 22.3
13:35 1021 30.15 850 25.1 20.4 68.7 19 -3.8 25.2
13:40 1021 30.15 850 25.1 20.7 69.3 17 -5.3 22.5
13:45 1021 30.15 850 25.1 20 68.1 18 -4.7 23.5
13:50 1021 30.15 850 25.1 19.6 67.2 18 -5.6 22
13:55 1021 30.15 850 25.1 19.1 66.3 18 -5.5 22
14:00 1021 30.15 850 25.1 19.6 67.2 18 -5.1 22.9
14:05 1021 30.15 850 25.1 19.6 67.2 17 -6.1 21.1
14:10 1021 30.15 850 25.1 20 68.1 18 -5 23
14:15 1020 30.12 850 25.1 19.9 67.7 17 -5.7 21.8
14:20 1020 30.12 850 25.1 19.3 66.8 18 -5.5 22.2
14:25 1020 30.12 849 25.07 20.3 68.5 17 -5.1 22.7
14:30 1020 30.12 849 25.07 20.7 69.2 18 -4.6 23.7
14:35 1020 30.12 849 25.07 20.6 69.1 17 -5.2 22.6
14:40 1020 30.12 849 25.07 21.8 71.2 15 -5.6 21.9
14:45 1020 30.12 849 25.07 21.5 70.7 17 -4.3 24.3
14:50 1020 30.12 849 25.07 21.1 69.9 16 -6 21.2
14:55 1020 30.12 849 25.07 21.3 70.4 16 -5.7 21.7
15:00 1020 30.12 849 25.07 20.8 69.5 15 -6.3 20.7
15:05 1020 30.12 849 25.07 20.6 69 16 -5.7 21.8
15:10 1020 30.12 849 25.07 19.9 67.9 18 -5.2 22.7
15:15 1020 30.12 849 25.07 20 67.9 18 -4.8 23.3
15:20 1020 30.12 849 25.07 20.7 69.2 17 -5.1 22.8
15:25 1019 30.09 849 25.07 20.5 68.9 17 -5.3 22.4
15:30 1019 30.09 849 25.07 20.6 69.1 17 -5.3 22.4
15:35 1019 30.09 849 25.07 20.1 68.2 17 -5.4 22.3
15:40 1019 30.09 849 25.07 20 68 17 -5.4 22.3
15:45 1019 30.09 848 25.04 21.4 70.5 15 -5.8 21.5
15:50 1019 30.09 848 25.04 22.1 71.7 15 -5.8 21.6
15:55 1019 30.09 848 25.04 21.7 71.1 16 -5.4 22.3
16:00 1019 30.09 848 25.04 21.7 71.1 15 -5.5 22
16:05 1019 30.09 848 25.04 21.8 71.3 16 -5.1 22.8
16:10 1019 30.09 848 25.04 21.4 70.6 16 -5.3 22.5
16:15 1019 30.09 848 25.04 21.8 71.2 16 -5 23
16:20 1019 30.09 848 25.04 21.7 71.1 16 -5.4 22.2
16:25 1019 30.09 848 25.04 21.2 70.1 16 -5.6 21.9
16:30 1019 30.09 848 25.04 21.4 70.6 15 -6.2 20.8
16:35 1019 30.09 848 25.04 21.9 71.3 17 -4.5 24
16:40 1019 30.09 848 25.04 21.2 70.1 16 -5.6 21.9
16:45 1019 30.09 848 25.04 21.4 70.6 16 -5.5 22
16:50 1019 30.09 848 25.04 21.2 70.1 15 -6.2 20.8
16:55 1019 30.09 848 25.04 21.9 71.3 15 -5.6 21.9
17:00 1019 30.09 848 25.04 21.3 70.4 15 -6 21.3
17:05 1019 30.09 848 25.04 20.9 69.7 17 -5.1 22.8
17:10 1019 30.09 848 25.04 20.9 69.6 16 -6 21.1
17:15 1019 30.09 848 25.04 20.7 69.3 16 -6.2 20.9
17:20 1019 30.09 848 25.04 20.4 68.8 16 -6 21.2
17:25 1019 30.09 848 25.04 20.6 69.2 16 -6.3 20.7
17:30 1018 30.06 848 25.04 21 69.8 15 -6.2 20.8
17:35 1018 30.06 848 25.04 21.4 70.5 15 -6.1 20.9
17:40 1018 30.06 848 25.04 21.8 71.2 15 -6.1 20.9
17:45 1018 30.06 848 25.04 21.6 70.8 16 -5.5 22.1
17:50 1018 30.06 848 25.04 20.7 69.3 17 -5.1 22.8
17:55 1018 30.06 847 25.01 20.3 68.5 17 -5.8 21.6
18:00 1018 30.06 847 25.01 20.1 68.2 17 -5.7 21.7
18:05 1018 30.06 847 25.01 20.2 68.3 17 -5.5 22.2
18:10 1018 30.06 847 25.01 20.3 68.5 17 -5.8 21.6
18:15 1018 30.06 847 25.01 20.2 68.4 16 -6.7 20
18:20 1018 30.06 847 25.01 20 68.1 17 -6 21.2
18:25 1018 30.06 847 25.01 20 68 17 -5.7 21.7
18:30 1018 30.06 847 25.01 19.9 67.8 17 -6.1 21.1
18:35 1018 30.06 847 25.01 19.8 67.6 16 -6.3 20.6
18:40 1018 30.06 847 25.01 19.7 67.4 16 -6.9 19.6
18:45 1018 30.06 847 25.01 19.6 67.3 16 -6.6 20.1
18:50 1018 30.06 847 25.01 19.6 67.3 17 -6.3 20.7
18:55 1018 30.06 847 25.01 19.5 67.1 16 -6.8 19.8
19:00 1018 30.06 847 25.01 19.4 66.9 16 -6.6 20.1
19:05 1018 30.06 847 25.01 19.4 66.8 16 -7.1 19.2
19:10 1018 30.06 847 25.01 19.4 66.8 17 -6.2 20.8
19:15 1018 30.06 847 25.01 19.3 66.7 17 -6.2 20.8
19:20 1018 30.06 847 25.01 19.2 66.5 19 -4.7 23.5
19:25 1018 30.06 847 25.01 18.9 65.9 21 -3.6 25.5
19:30 1018 30.06 847 25.01 18.5 65.3 23 -2.9 26.8
19:35 1018 30.06 847 25.01 18.2 64.7 26 -1.4 29.4
19:40 1018 30.06 847 25.01 17.2 63 31 -0 32
19:45 1018 30.06 847 25.01 16.2 61.1 34 0.3 32.5
19:50 1018 30.06 847 25.01 15.6 60.1 34 -0.1 31.9
19:55 1018 30.06 847 25.01 15.2 59.3 36 0.4 32.8
20:00 1018 30.06 847 25.01 14.7 58.5 37 0.4 32.7
20:05 1018 30.06 847 25.01 14.2 57.6 38 0.4 32.7
20:10 1018 30.06 847 25.01 14 57.3 37 -0.5 31.1
20:15 1018 30.06 847 25.01 14 57.3 36 -0.8 30.6
20:20 1018 30.06 847 25.01 14 57.3 35 -1.3 29.7
20:25 1018 30.06 847 25.01 14.1 57.3 35 -1.1 30
20:30 1018 30.06 847 25.01 13.8 56.9 35 -1.1 29.9
20:35 1018 30.06 847 25.01 13.5 56.4 37 -0.7 30.7
20:40 1018 30.06 847 25.01 13.1 55.6 39 -0.6 31
20:45 1018 30.06 847 25.01 12.9 55.2 39 -0.8 30.5
20:50 1018 30.06 847 25.01 12.9 55.3 37 -1.2 29.8
20:55 1018 30.06 847 25.01 13 55.3 37 -1.3 29.6
21:00 1018 30.06 847 25.01 12.9 55.2 38 -1.2 29.9
21:05 1018 30.06 847 25.01 12.8 55.1 38 -1.1 30
21:10 1018 30.06 847 25.01 12.6 54.6 39 -1.1 30
21:15 1018 30.06 847 25.01 12.6 54.7 37 -1.6 29.2
21:20 1018 30.06 847 25.01 12.9 55.2 36 -1.9 28.7
21:25 1018 30.06 847 25.01 13 55.4 36 -1.6 29.2
21:30 1018 30.06 847 25.01 12.7 54.9 37 -1.4 29.5
21:35 1018 30.06 847 25.01 12.6 54.6 38 -1.3 29.6
21:40 1018 30.06 847 25.01 12.6 54.7 37 -1.8 28.8
21:45 1018 30.06 847 25.01 12.6 54.6 38 -1.1 30
21:50 1018 30.06 847 25.01 12.3 54.1 37 -1.8 28.8
21:55 1018 30.06 847 25.01 12.7 54.8 36 -2 28.4
22:00 1018 30.06 847 25.01 12.6 54.7 37 -1.7 28.9
22:05 1018 30.06 847 25.01 12.5 54.5 37 -1.6 29.1
22:10 1018 30.06 847 25.01 12.4 54.3 38 -1.3 29.6
22:15 1018 30.06 847 25.01 12.3 54.2 39 -1.2 29.9
22:20 1018 30.06 847 25.01 12.3 54.1 40 -0.9 30.3
22:25 1018 30.06 847 25.01 12.3 54.1 40 -0.8 30.5
22:30 1018 30.06 847 25.01 12.2 54 40 -0.8 30.6
22:35 1018 30.06 847 25.01 12.3 54.1 41 -0.6 30.9
22:40 1018 30.06 847 25.01 12.2 54 41 -0.6 30.9
22:45 1018 30.06 847 25.01 12.3 54.1 40 -0.7 30.8
22:50 1018 30.06 847 25.01 12.2 53.9 40 -0.8 30.5
22:55 1018 30.06 847 25.01 12 53.7 41 -0.9 30.4
23:00 1018 30.06 847 25.01 12 53.7 40 -1 30.2
23:05 1018 30.06 847 25.01 12 53.6 41 -0.8 30.5
23:10 1018 30.06 847 25.01 11.9 53.4 41 -1 30.2
23:15 1018 30.06 847 25.01 11.9 53.5 40 -1 30.1
23:20 1018 30.06 847 25.01 11.9 53.5 41 -1 30.2
23:25 1018 30.06 847 25.01 11.9 53.5 40 -1.1 30
23:30 1018 30.06 847 25.01 11.9 53.3 40 -1.4 29.5
23:35 1017 30.03 847 25.01 11.7 53.1 40 -1.3 29.7
23:40 1017 30.03 847 25.01 11.5 52.8 40 -1.6 29.2
23:45 1017 30.03 847 25.01 11.6 52.9 39 -1.8 28.8
23:50 1017 30.03 847 25.01 11.7 53 39 -1.9 28.7
23:55 1017 30.03 847 25.01 11.6 52.9 39 -2 28.4
24:00 1017 30.03 847 25.01 11.5 52.6 38 -2.1 28.2